Rafael Rangel

Olheiro-Chefe - Leones
17 Jul 2027
Sábado
Processo

Personalidade

Adaptabilidade (5) Ambição (1) Controvérsia (10) Lealdade (12) Pressão (17) Profissionalismo (8) Espírito Esportivo (15) Temperamento (13)

Perfil

Estilo de Treinamento Democrático
Licença Continental C
Determinação 10
Gestão de Pessoas 4
Motivação 9
Disciplina 9
Satisfação no Trabalho
89%
Fadiga
0%
Função Olheiro-Chefe
Salário 25.7K p/s
Contrato 14.03.2029

Desempenho

Comportamento Bom
Eficácia do Treinamento
28%
Desenvolvimento do Jogador
30%
Prevenção de Lesões
40%
Implementação Tática
35%

Eventos Recentes

Participou de uma reunião de recrutamento 7d atrás
Participou de uma reunião de recrutamento 14d atrás
Participou de uma reunião de recrutamento 21d atrás
Participou de uma reunião de recrutamento 28d atrás
Participou de uma reunião de recrutamento 35d atrás
Participou de uma reunião de recrutamento 42d atrás
Participou de uma reunião de recrutamento 49d atrás
Participou de uma reunião de recrutamento 56d atrás

Monitorando agora

150
Jogador Clube Status Habilidade Confiança Observado Última observação Último voto
Yovany García Depor Ativo 88 / 81 41% 1 21.12.2026 -
Yefri Velasco Llaneros Ativo 82 / 87 41% 1 07.12.2026 -
Leandro Suhr Piast Ativo 108 / 114 40% 2 28.11.2026 -
Agustín Venezia Iquique Ativo 115 / 108 40% 2 28.11.2026 -
Aaron Spetale Quilmes Ativo 125 / 114 40% 2 28.11.2026 -
Franco Fagúndez Estudiantes Ativo 106 / 111 40% 1 28.11.2026 -
Juan David Rueda Alianza Petrolera Ativo 118 / 104 40% 2 26.11.2026 -
Darío Rostagno Estudiantes Ativo 112 / 110 40% 1 25.11.2026 -
Alan Barrionuevo Tigre Ativo 128 / 121 40% 1 25.11.2026 -
Ánderson Mojica Charleroi Ativo 93 / 88 40% 1 24.11.2026 -
Isaac Matondo Koper Ativo 117 / 99 40% 1 22.11.2026 -
Driton Camaj Novi Pazar Ativo 123 / 108 40% 1 21.11.2026 -
Gaspar Duarte Rosario Central Ativo 119 / 115 40% 1 20.11.2026 -
Matías Gallegos Antofagasta Ativo 111 / 98 40% 1 19.11.2026 -
Enzo Avaro Mitre Ativo 102 / 112 40% 1 18.11.2026 -
Joshuan Berríos Carabobo Ativo 110 / 104 40% 5 17.11.2026 -
Mateo Mendoza Godoy Cruz Ativo 130 / 125 40% 1 17.11.2026 -
Bruno Palazzo Nueva Chicago Ativo 100 / 108 40% 1 17.11.2026 -
Enzo González Defensores Ativo 99 / 107 40% 2 16.11.2026 -
Blas Armoa Gimnasia y Esgrima Ativo 125 / 113 40% 2 16.11.2026 -
Nicolás Fernández Maipú Ativo 103 / 108 40% 1 15.11.2026 -
Alejandro Molina Tristán Suárez Ativo 112 / 116 40% 1 15.11.2026 -
Federico Marín Colegiales Ativo 106 / 106 40% 1 14.11.2026 -
Franco Díaz Temperley Ativo 132 / 124 40% 1 14.11.2026 -
Tomás Porra Barracas Central Ativo 119 / 123 40% 2 13.11.2026 -
Agustín Benítez Defensores Ativo 122 / 112 40% 1 13.11.2026 -
Maico Quiroz Güemes Ativo 109 / 109 40% 1 12.11.2026 -
Santiago Jiménez Deportivo Pasto Ativo 108 / 119 40% 1 12.11.2026 -
Thiago Vecino O'Higgins Ativo 92 / 107 40% 3 09.11.2026 -
Dilan Ortíz Ufa Ativo 113 / 102 40% 1 09.11.2026 -
Facundo Centurión Alvarado Ativo 106 / 98 40% 1 09.11.2026 -
Eric Meza Estudiantes Ativo 126 / 129 40% 1 09.11.2026 -
Juan Larios Piast Ativo 113 / 126 40% 1 07.11.2026 -
Franco Quinteros Estudiantes Ativo 108 / 113 40% 1 07.11.2026 -
Eugenio Olivera Talleres Ativo 90 / 94 40% 1 06.11.2026 -
Matías Contrera Northampton Town Ativo 99 / 95 40% 1 06.11.2026 -
Francisco Bonfiglio Boston River Ativo 111 / 104 40% 2 05.11.2026 -
Alexander Díaz Deportivo Riestra Ativo 108 / 120 40% 3 05.11.2026 -
Gianluca Pugliese Güemes Ativo 111 / 108 40% 1 04.11.2026 -
Juan Cruz Zurbriggen San Telmo Ativo 93 / 98 40% 1 04.11.2026 -
Agustín Maidana San Marcos de Arica Ativo 99 / 101 40% 1 03.11.2026 -
Julián Marchio San Martín SJ Ativo 103 / 104 40% 1 03.11.2026 -
Santiago Guzmán Lanús Ativo 116 / 104 40% 1 01.11.2026 -
Luis Olivera Defensores Unidos Ativo 115 / 108 40% 1 31.10.2026 -
Luis Jiménez Jaguares Ativo 101 / 116 40% 1 31.10.2026 -
Diego Hernández Aguilas Doradas Ativo 117 / 120 40% 1 30.10.2026 -
Juan David Bacca Iquique Ativo 91 / 88 40% 1 28.10.2026 -
Elías Torres Racing Club Ativo 130 / 118 40% 1 28.10.2026 -
Jonás Luna Wanderers Ativo 105 / 122 40% 1 27.10.2026 -
Sebastián Moreno Patriotas Ativo 102 / 100 40% 1 25.10.2026 -
Fernando Mimbacas Juventud Ativo 109 / 116 40% 1 24.10.2026 -
Francisco Bareiro Vaduz Ativo 87 / 104 40% 1 24.10.2026 -
Javier Mena Aguilas Doradas Ativo 119 / 118 40% 1 24.10.2026 -
Diego Gallegos Morelia Ativo 94 / 108 40% 1 24.10.2026 -
Duván Riascos Exeter City Ativo 84 / 84 40% 1 22.10.2026 -
Fabrizio Sartori Independiente Rivadavia Ativo 124 / 119 40% 2 21.10.2026 -
Germán Cervera Alvarado Ativo 91 / 105 40% 1 20.10.2026 -
Camilo Machado Madryn Ativo 107 / 104 40% 1 20.10.2026 -
Marcos Machado Mitre Ativo 114 / 103 40% 1 20.10.2026 -
Favio Cabral Mitre Ativo 129 / 115 40% 2 18.10.2026 -
Patrick Preciado Deportivo Pasto Ativo 90 / 113 40% 1 18.10.2026 -
Lisandro Cabrera Maipú Ativo 116 / 107 40% 1 17.10.2026 -
Luciano Cosentino Wanderers Ativo 113 / 127 40% 1 15.10.2026 -
Rodrigo Cáseres Union La Calera Ativo 104 / 110 40% 1 14.10.2026 -
Thiago Calone All Boys Ativo 111 / 107 40% 1 14.10.2026 -
Franco García Ferro Carril Oeste Ativo 108 / 105 40% 1 14.10.2026 -
Sebastián Cocimano Nueva Chicago Ativo 119 / 105 40% 1 13.10.2026 -
Antony Alonso Deportivo Riestra Ativo 127 / 116 40% 1 13.10.2026 -
Facundo Nadalín San Martín SJ Ativo 119 / 121 40% 1 11.10.2026 -
Axel Guerra Chacarita Juniors Ativo 118 / 103 40% 1 11.10.2026 -
Ronaldo De Jesús Lanús Ativo 132 / 115 40% 1 09.10.2026 -
Facundo Melillán Güemes Ativo 113 / 107 40% 1 09.10.2026 -
Marcos Camarda Santiago Wanderers Ativo 97 / 101 40% 1 07.10.2026 -
Marcelo Flores Tigres Ativo 113 / 114 40% 3 05.10.2026 -
Federico Álvarez Atlanta Ativo 113 / 108 40% 1 05.10.2026 -
Cristian Barros Cerro Ativo 105 / 105 40% 1 04.10.2026 -
Santiago Apa All Boys Ativo 115 / 116 40% 1 04.10.2026 -
Bianneider Tamayo Universidad de Chile Ativo 94 / 112 40% 2 02.10.2026 -
Cristián Gutiérrez Union La Calera Ativo 114 / 108 40% 1 02.10.2026 -
Maximiliano Rodríguez Huachipato Ativo 112 / 110 40% 1 02.10.2026 -
Iván Maggi Sportivo Luqueno Ativo 113 / 115 40% 3 01.10.2026 -
Genaro Rossi San Martín SJ Ativo 110 / 106 40% 1 01.10.2026 -
Juan Manuel Zapata Envigado Ativo 109 / 112 40% 1 30.09.2026 -
Valentín Fenoglio Estudiantes Ativo 119 / 119 40% 1 29.09.2026 -
Nicolás Castro Toluca Ativo 145 / 134 40% 1 29.09.2026 -
Emiliano Saliadarre Miramar Misiones Ativo 103 / 116 40% 1 27.09.2026 -
Jorge Obregón Deportivo Pasto Ativo 108 / 116 40% 1 27.09.2026 -
Alejo Macelli Cerro Ativo 112 / 108 40% 1 27.09.2026 -
Julián Brea Cobresal Ativo 97 / 98 40% 2 25.09.2026 -
Ignacio Yepez Cerrito Ativo 118 / 115 40% 1 25.09.2026 -
Stiven Vega Millonarios Ativo 125 / 118 40% 1 24.09.2026 -
Leison Cuero Colon Ativo 95 / 95 40% 1 24.09.2026 -
Lautaro Lovazzano Portuguesa Ativo 96 / 104 40% 1 23.09.2026 -
Segundo Pachamé Plaza Colonia Ativo 114 / 107 40% 1 23.09.2026 -
Nathan Ordaz DC United Ativo 92 / 115 40% 1 21.09.2026 -
Eric Ramírez Carabobo Ativo 122 / 112 40% 4 20.09.2026 -
Michael Vadulli Audax Italiano Ativo 116 / 114 40% 1 17.09.2026 -
Marin Benko Zadar Ativo 147 / 126 40% 1 17.09.2026 -
Guillermo Paiva Junior Ativo 119 / 122 40% 1 16.09.2026 -
Santiago Córdoba Deportivo Pasto Ativo 89 / 112 40% 1 16.09.2026 -
Santiago Homenchenko Queretaro Ativo 102 / 124 40% 2 15.09.2026 -
Rafael Haller Liverpool Montevideo Ativo 109 / 103 40% 1 15.09.2026 -
Víctor Machado Independiente Rivadavia Ativo 94 / 89 40% 1 15.09.2026 -
Néiser Villarreal Cruzeiro Ativo 96 / 104 40% 1 14.09.2026 -
Jáder Valencia Deportes Tolima Ativo 128 / 107 40% 1 11.09.2026 -
Oscar Ferraresi Llaneros Ativo 120 / 101 40% 1 11.09.2026 -
Aldair Zárate Atletico Bucaramanga Ativo 129 / 115 40% 1 11.09.2026 -
Santiago Simón Toluca Ativo 97 / 127 40% 1 10.09.2026 -
Aarón Astudillo Cobresal Ativo 82 / 83 40% 1 10.09.2026 -
José Pérez Portuguesa Ativo 89 / 97 40% 2 06.09.2026 -
Lautaro Mora Huracán Ativo 99 / 117 40% 1 06.09.2026 -
Diego Martinez La Equidad Ativo 141 / 129 40% 1 06.09.2026 -
José Balza Deportivo Tachira Ativo 119 / 100 40% 1 03.09.2026 -
Diego Betancourth General Diaz Ativo 93 / 83 40% 1 02.09.2026 -
Thiago Ponce Rosario Central Ativo 97 / 107 40% 1 02.09.2026 -
Santiago Herrera Trujillanos Ativo 83 / 96 40% 1 30.08.2026 -
Jimmy Evans Universidad Catolica Ativo 109 / 109 40% 1 29.08.2026 -
César Salazar Mineros de Guayana Ativo 100 / 92 40% 1 28.08.2026 -
César Magallan Estudiantes de Merida Ativo 118 / 105 40% 1 26.08.2026 -
Sebastián Parada San Luis Ativo 92 / 89 40% 1 25.08.2026 -
Mateo Garavito Deportivo Pasto Ativo 136 / 120 40% 1 25.08.2026 -
Kevin Palacios Santos Laguna Ativo 108 / 113 40% 1 24.08.2026 -
Yerco Oyanedel Universidad de Concepcion Ativo 96 / 109 40% 1 24.08.2026 -
Alejandro Piedrahita Deportivo Pereira Ativo 105 / 120 40% 2 22.08.2026 -
Jeriel De Santis Caracas Ativo 107 / 110 40% 2 22.08.2026 -
Oscar Osorio Atletico Venezuela Ativo 113 / 112 40% 1 21.08.2026 -
Alexei Dominguez Pachuca Ativo 103 / 114 40% 1 20.08.2026 -
Ryan Mmaee Atlas Ativo 100 / 117 40% 1 19.08.2026 -
David Camacho UTC Ativo 118 / 113 40% 1 19.08.2026 -
Gonzalo Córdoba Mitre Ativo 106 / 103 40% 1 19.08.2026 -
Alberto Benítez Villalba General Caballero Ativo 105 / 97 40% 1 15.08.2026 -
Francisco Galván Deportivo Municipal Ativo 106 / 114 40% 1 15.08.2026 -
Brayan Hurtado Antofagasta Ativo 111 / 93 40% 2 14.08.2026 -
Yolfran Caricote Metropolitanos Ativo 98 / 99 40% 1 14.08.2026 -
Sebastián Vargas Nacional Ativo 99 / 107 40% 1 14.08.2026 -
Michael Nike Patriotas Ativo 105 / 104 40% 1 13.08.2026 -
José Rivas Gamboa Trujillanos Ativo 113 / 94 40% 1 12.08.2026 -
Richard Torales Guarani Ativo 95 / 105 40% 1 12.08.2026 -
José Delgado Iquique Ativo 75 / 74 40% 1 12.08.2026 -
Agustín Bianciotti Metropolitanos Ativo 109 / 104 40% 1 08.08.2026 -
Nelson Da Silva Palestino Ativo 105 / 98 40% 1 07.08.2026 -
Luis Iberico Sporting Cristal Ativo 101 / 116 40% 1 06.08.2026 -
Luifer Hernández Puebla Ativo 122 / 85 40% 1 06.08.2026 -
Kleyder Barreto Estudiantes de Caracas Ativo 102 / 85 40% 1 06.08.2026 -
Mauricio Márquez Caracas Ativo 99 / 95 40% 1 05.08.2026 -
Alexis Gutiérrez Club America Ativo 118 / 121 40% 1 05.08.2026 -
José Rivera Universitario Ativo 108 / 114 40% 1 02.08.2026 -
Franco Ayunta Temperley Ativo 99 / 106 40% 1 02.08.2026 -
Augusto Berrondo Tristán Suárez Ativo 111 / 114 40% 1 01.08.2026 -
Javier Martínez Almirante Brown Ativo 120 / 102 40% 1 01.08.2026 -